createdAt,value
2023-12-13T00:01:45.666Z,2.88
2023-12-13T00:04:15.217Z,3.17
2023-12-13T00:06:43.326Z,3.40
2023-12-13T00:09:13.966Z,1.92
2023-12-13T00:11:42.094Z,2.05
2023-12-13T00:14:10.767Z,1.90
2023-12-13T00:16:40.009Z,1.80
2023-12-13T00:19:08.454Z,1.67
2023-12-13T00:21:38.037Z,1.52
2023-12-13T00:24:07.307Z,2.00
2023-12-13T00:26:35.469Z,1.63
2023-12-13T00:29:04.064Z,1.80
2023-12-13T00:31:32.229Z,1.92
2023-12-13T00:34:00.450Z,2.17
2023-12-13T00:36:28.684Z,2.40
2023-12-13T00:38:58.304Z,2.38
2023-12-13T00:41:26.665Z,2.10
2023-12-13T00:43:54.751Z,2.10
2023-12-13T00:46:23.933Z,2.10
2023-12-13T00:48:52.249Z,2.20
2023-12-13T00:51:21.698Z,2.40
2023-12-13T00:53:50.378Z,2.30
2023-12-13T00:56:19.882Z,2.30
2023-12-13T00:58:48.770Z,2.00
2023-12-13T01:01:17.901Z,1.60
2023-12-13T01:03:46.222Z,1.48
2023-12-13T01:06:14.396Z,1.52
2023-12-13T01:08:42.488Z,1.50
2023-12-13T01:11:11.428Z,1.90
2023-12-13T01:13:42.486Z,1.80
2023-12-13T01:16:11.538Z,2.20
2023-12-13T01:18:39.706Z,2.50
2023-12-13T01:21:08.000Z,1.98
2023-12-13T01:23:36.134Z,2.20
2023-12-13T01:26:04.213Z,1.97
2023-12-13T01:28:32.396Z,1.92
2023-12-13T01:31:06.530Z,1.67
2023-12-13T01:33:35.962Z,1.75
2023-12-13T01:36:04.790Z,1.90
2023-12-13T01:38:32.854Z,1.80
2023-12-13T01:41:11.906Z,1.90
2023-12-13T01:43:43.052Z,2.00
2023-12-13T01:46:15.298Z,1.88
2023-12-13T01:48:44.646Z,1.73
2023-12-13T01:51:13.869Z,1.60
2023-12-13T01:53:43.902Z,1.42
2023-12-13T01:56:13.915Z,1.65
2023-12-13T01:58:42.990Z,1.40
2023-12-13T02:01:12.870Z,1.70
2023-12-13T02:03:44.365Z,1.20
2023-12-13T02:06:12.557Z,1.50
2023-12-13T02:08:40.739Z,1.70
2023-12-13T02:11:08.896Z,1.45
2023-12-13T02:13:37.209Z,1.23
2023-12-13T02:16:06.769Z,1.15
2023-12-13T02:18:35.344Z,1.00
2023-12-13T02:21:03.491Z,1.30
2023-12-13T02:23:32.015Z,1.20
2023-12-13T02:26:02.779Z,1.40
2023-12-13T02:28:31.998Z,1.20
2023-12-13T02:31:01.424Z,1.63
2023-12-13T02:33:31.411Z,1.20
2023-12-13T02:36:02.250Z,1.20
2023-12-13T02:38:30.379Z,1.33
2023-12-13T02:40:59.935Z,1.30
2023-12-13T02:43:29.173Z,1.40
2023-12-13T02:45:57.497Z,1.60
2023-12-13T02:48:25.998Z,1.90
2023-12-13T02:50:54.822Z,1.92
2023-12-13T02:53:23.747Z,1.90
2023-12-13T02:55:52.023Z,2.13
2023-12-13T02:58:21.506Z,2.38
2023-12-13T03:00:51.721Z,2.00
2023-12-13T03:03:19.878Z,1.60
2023-12-13T03:05:48.076Z,1.70
2023-12-13T03:08:18.047Z,1.50
2023-12-13T03:10:46.236Z,1.08
2023-12-13T03:13:14.532Z,1.60
2023-12-13T03:15:44.071Z,1.83
2023-12-13T03:18:12.773Z,2.53
2023-12-13T03:20:40.922Z,2.40
2023-12-13T03:23:10.141Z,2.80
2023-12-13T03:25:38.432Z,3.08
2023-12-13T03:28:06.575Z,2.70
2023-12-13T03:30:35.083Z,2.20
2023-12-13T03:33:04.939Z,2.38
2023-12-13T03:35:33.229Z,1.80
2023-12-13T03:38:01.354Z,1.77
2023-12-13T03:40:29.641Z,1.90
2023-12-13T03:42:57.925Z,1.77
2023-12-13T03:45:25.973Z,2.17
2023-12-13T03:47:54.642Z,1.80
2023-12-13T03:50:24.269Z,1.80
2023-12-13T03:52:52.575Z,2.00
2023-12-13T03:55:20.928Z,1.80
2023-12-13T03:57:48.990Z,1.90
2023-12-13T04:00:17.518Z,2.03
2023-12-13T04:02:45.610Z,2.00
2023-12-13T04:05:13.832Z,2.00
2023-12-13T04:07:43.325Z,2.20
2023-12-13T04:10:11.687Z,2.40
2023-12-13T04:12:39.908Z,1.90
2023-12-13T04:15:08.998Z,1.90
2023-12-13T04:17:37.577Z,2.00
2023-12-13T04:20:07.649Z,3.30
2023-12-13T04:22:35.715Z,2.97
2023-12-13T04:25:05.537Z,2.80
2023-12-13T04:27:33.942Z,2.90
2023-12-13T04:30:02.331Z,2.50
2023-12-13T04:32:30.582Z,3.08
2023-12-13T04:34:59.176Z,2.60
2023-12-13T04:37:27.448Z,2.38
2023-12-13T04:39:55.585Z,2.80
2023-12-13T04:42:25.468Z,2.88
2023-12-13T04:44:53.528Z,3.00
2023-12-13T04:47:21.881Z,2.80
2023-12-13T04:49:49.936Z,3.20
2023-12-13T04:52:18.075Z,2.80
2023-12-13T04:54:46.151Z,3.00
2023-12-13T04:57:14.285Z,3.10
2023-12-13T04:59:43.712Z,2.87
2023-12-13T05:02:11.776Z,2.90
2023-12-13T05:04:39.920Z,3.00
2023-12-13T05:07:09.942Z,3.30
2023-12-13T05:09:38.055Z,4.00
2023-12-13T05:12:06.934Z,3.30
2023-12-13T05:14:35.258Z,2.95
2023-12-13T05:17:04.829Z,2.97
2023-12-13T05:19:32.971Z,2.83
2023-12-13T05:22:01.118Z,3.20
2023-12-13T05:24:29.236Z,3.13
2023-12-13T05:26:57.294Z,2.83
2023-12-13T05:29:25.384Z,2.42
2023-12-13T05:31:56.612Z,2.53
2023-12-13T05:34:27.047Z,2.97
2023-12-13T05:36:55.121Z,2.75
2023-12-13T05:39:23.165Z,2.90
2023-12-13T05:41:51.481Z,2.50
2023-12-13T05:44:19.522Z,2.78
2023-12-13T05:46:47.621Z,2.17
2023-12-13T05:49:16.490Z,2.40
2023-12-13T05:51:45.975Z,2.10
2023-12-13T05:54:14.137Z,2.88
2023-12-13T05:56:42.294Z,2.40
2023-12-13T05:59:11.967Z,2.35
2023-12-13T06:01:40.285Z,2.40
2023-12-13T06:04:08.452Z,2.40
2023-12-13T06:06:36.697Z,2.90
2023-12-13T06:09:06.528Z,2.20
2023-12-13T06:11:34.613Z,2.60
2023-12-13T06:14:02.760Z,2.40
2023-12-13T06:16:30.983Z,3.00
2023-12-13T06:18:59.752Z,2.55
2023-12-13T06:21:27.989Z,2.80
2023-12-13T06:23:56.441Z,2.70
2023-12-13T06:26:25.849Z,2.60
2023-12-13T06:28:54.061Z,2.90
2023-12-13T06:31:22.457Z,2.92
2023-12-13T06:33:50.939Z,2.90
2023-12-13T06:36:19.192Z,3.33
2023-12-13T06:38:47.543Z,3.13
2023-12-13T06:41:15.724Z,3.47
2023-12-13T06:43:45.288Z,3.45
2023-12-13T06:46:13.407Z,3.03
2023-12-13T06:48:41.798Z,3.50
2023-12-13T06:51:10.162Z,3.20
2023-12-13T06:53:38.535Z,2.83
2023-12-13T06:56:07.599Z,2.78
2023-12-13T06:58:36.796Z,3.00
2023-12-13T07:01:06.862Z,2.80
2023-12-13T07:03:36.039Z,2.92
2023-12-13T07:06:06.122Z,3.10
2023-12-13T07:08:35.993Z,2.75
2023-12-13T07:11:05.662Z,3.20
2023-12-13T07:13:33.841Z,2.90
2023-12-13T07:16:02.168Z,2.88
2023-12-13T07:18:32.025Z,2.90
2023-12-13T07:21:00.190Z,3.10
2023-12-13T07:23:28.237Z,2.80
2023-12-13T07:25:56.352Z,3.33
2023-12-13T07:28:24.794Z,3.10
2023-12-13T07:31:02.332Z,3.60
2023-12-13T07:33:42.024Z,3.55
2023-12-13T07:36:14.078Z,3.30
2023-12-13T07:38:42.814Z,3.50
2023-12-13T07:41:11.118Z,4.10
2023-12-13T07:43:38.358Z,3.30
2023-12-13T07:46:07.124Z,3.40
2023-12-13T07:48:35.387Z,3.70
2023-12-13T07:51:05.244Z,3.30
2023-12-13T07:53:33.323Z,3.67
2023-12-13T07:56:01.633Z,3.90
2023-12-13T07:58:29.746Z,3.80
2023-12-13T08:00:57.891Z,4.00
2023-12-13T08:03:26.134Z,4.00
2023-12-13T08:05:54.248Z,4.03
2023-12-13T08:08:23.682Z,4.30
2023-12-13T08:10:53.993Z,4.13
2023-12-13T08:13:22.437Z,3.80
2023-12-13T08:15:50.764Z,4.13
2023-12-13T08:18:18.961Z,4.32
2023-12-13T08:20:47.077Z,3.90
2023-12-13T08:23:15.442Z,4.20
2023-12-13T08:25:44.986Z,4.40
2023-12-13T08:28:13.125Z,3.70
2023-12-13T08:30:41.234Z,4.30
2023-12-13T08:33:09.438Z,3.78
2023-12-13T08:35:37.589Z,4.72
2023-12-13T08:38:05.718Z,3.80
2023-12-13T08:40:33.835Z,4.20
2023-12-13T08:43:03.389Z,4.60
2023-12-13T08:45:31.495Z,4.20
2023-12-13T08:47:59.637Z,4.22
2023-12-13T08:50:27.993Z,5.03
2023-12-13T08:52:56.208Z,4.60
2023-12-13T08:55:24.431Z,4.78
2023-12-13T08:57:52.527Z,4.03
2023-12-13T09:00:22.333Z,4.38
2023-12-13T09:02:50.428Z,3.97
2023-12-13T09:05:18.480Z,3.70
2023-12-13T09:07:46.633Z,3.70
2023-12-13T09:10:14.753Z,3.90
2023-12-13T09:12:42.829Z,3.90
2023-12-13T09:15:11.054Z,4.30
2023-12-13T09:17:42.004Z,3.88
2023-12-13T09:20:16.013Z,3.70
2023-12-13T09:22:44.576Z,3.70
2023-12-13T09:25:15.554Z,3.38
2023-12-13T09:27:44.022Z,3.35
2023-12-13T09:30:14.403Z,3.47
2023-12-13T09:32:46.237Z,3.73
2023-12-13T09:35:16.348Z,3.70
2023-12-13T09:37:44.548Z,3.78
2023-12-13T09:40:17.096Z,3.50
2023-12-13T09:42:47.571Z,2.83
2023-12-13T09:45:21.315Z,2.97
2023-12-13T09:47:52.538Z,2.42
2023-12-13T09:50:21.874Z,2.70
2023-12-13T09:52:52.028Z,2.37
2023-12-13T09:55:21.644Z,2.10
2023-12-13T09:57:49.872Z,2.73
2023-12-13T10:00:18.989Z,2.97
2023-12-13T10:02:48.040Z,2.67
2023-12-13T10:05:19.920Z,2.80
2023-12-13T10:07:49.728Z,2.43
2023-12-13T10:10:18.126Z,2.60
2023-12-13T10:12:51.722Z,3.10
2023-12-13T10:15:19.934Z,2.20
2023-12-13T10:17:49.420Z,2.70
2023-12-13T10:20:19.047Z,2.90
2023-12-13T10:22:47.263Z,2.20
2023-12-13T10:25:16.004Z,2.70
2023-12-13T10:27:44.172Z,2.10
2023-12-13T10:30:14.112Z,2.30
2023-12-13T10:32:42.444Z,2.50
2023-12-13T10:35:10.856Z,2.40
2023-12-13T10:37:43.490Z,2.30
2023-12-13T10:40:13.912Z,2.20
2023-12-13T10:42:44.838Z,2.00
2023-12-13T10:45:13.945Z,2.30
2023-12-13T10:47:46.711Z,2.97
2023-12-13T10:50:16.528Z,2.58
2023-12-13T10:52:48.222Z,2.67
2023-12-13T10:55:17.171Z,2.40
2023-12-13T10:57:45.341Z,2.53
2023-12-13T11:00:17.179Z,2.20
2023-12-13T11:02:51.185Z,2.38
2023-12-13T11:05:20.629Z,2.70
2023-12-13T11:07:51.532Z,2.50
2023-12-13T11:10:19.869Z,1.90
2023-12-13T11:12:50.679Z,2.20
2023-12-13T11:15:20.104Z,2.08
2023-12-13T11:17:49.755Z,2.10
2023-12-13T11:20:21.581Z,2.38
2023-12-13T11:22:51.196Z,2.40
2023-12-13T11:25:19.549Z,2.45
2023-12-13T11:27:54.307Z,2.70
2023-12-13T11:30:24.180Z,2.40
2023-12-13T11:32:53.079Z,2.28
2023-12-13T11:35:22.774Z,2.40
2023-12-13T11:37:54.031Z,2.20
2023-12-13T11:40:22.898Z,2.28
2023-12-13T11:42:52.226Z,2.07
2023-12-13T11:45:21.431Z,2.03
2023-12-13T11:47:51.776Z,2.33
2023-12-13T11:50:22.459Z,2.60
2023-12-13T11:52:52.574Z,2.70
2023-12-13T11:55:24.091Z,2.65
2023-12-13T11:57:54.761Z,2.20
2023-12-13T12:00:23.106Z,2.10
2023-12-13T12:02:54.705Z,2.30
2023-12-13T12:05:23.841Z,2.10
2023-12-13T12:07:59.676Z,2.10
2023-12-13T12:10:28.258Z,2.00
2023-12-13T12:12:56.367Z,2.00
2023-12-13T12:15:24.445Z,1.80
2023-12-13T12:17:52.993Z,1.30
2023-12-13T12:20:21.522Z,1.10
2023-12-13T12:22:49.703Z,1.00
2023-12-13T12:25:21.325Z,1.20
2023-12-13T12:27:50.739Z,1.80
2023-12-13T12:30:20.280Z,1.70
2023-12-13T12:32:49.335Z,1.40
2023-12-13T12:35:18.670Z,1.80
2023-12-13T12:37:47.681Z,1.50
2023-12-13T12:40:16.382Z,1.75
2023-12-13T12:42:46.740Z,1.70
2023-12-13T12:45:14.992Z,1.85
2023-12-13T12:47:43.213Z,1.80
2023-12-13T12:50:11.722Z,1.60
2023-12-13T12:52:40.309Z,1.70
2023-12-13T12:55:09.161Z,1.60
2023-12-13T12:57:37.346Z,1.70
2023-12-13T13:00:07.984Z,1.98
2023-12-13T13:02:36.192Z,1.90
2023-12-13T13:05:04.491Z,1.63
2023-12-13T13:07:34.655Z,2.03
2023-12-13T13:10:06.057Z,1.77
2023-12-13T13:12:34.166Z,1.90
2023-12-13T13:15:03.017Z,4.00
2023-12-13T13:17:33.185Z,2.00
2023-12-13T13:20:04.574Z,2.00
2023-12-13T13:22:33.010Z,1.67
2023-12-13T13:25:01.430Z,1.90
2023-12-13T13:27:29.622Z,2.20
2023-12-13T13:29:58.316Z,1.73
2023-12-13T13:32:27.029Z,1.90
2023-12-13T13:34:57.722Z,2.35
2023-12-13T13:37:25.965Z,1.90
2023-12-13T13:39:54.056Z,1.80
2023-12-13T13:42:22.715Z,2.40
2023-12-13T13:44:50.858Z,2.28
2023-12-13T13:47:18.960Z,2.20
2023-12-13T13:49:47.661Z,1.85
2023-12-13T13:52:17.191Z,1.95
2023-12-13T13:54:45.400Z,2.10
2023-12-13T13:57:13.475Z,2.15
2023-12-13T13:59:41.828Z,1.90
2023-12-13T14:02:10.031Z,1.77
2023-12-13T14:04:38.405Z,2.33
2023-12-13T14:07:06.922Z,2.65
2023-12-13T14:09:36.573Z,2.50
2023-12-13T14:12:05.021Z,2.60
2023-12-13T14:14:33.104Z,2.75
2023-12-13T14:17:01.555Z,2.70
2023-12-13T14:19:29.823Z,3.03
2023-12-13T14:21:58.574Z,3.20
2023-12-13T14:24:26.750Z,3.30
2023-12-13T14:26:56.218Z,3.42
2023-12-13T14:29:26.714Z,2.92
2023-12-13T14:31:55.620Z,3.10
2023-12-13T14:34:35.703Z,2.75
2023-12-13T14:37:03.831Z,2.10
2023-12-13T14:39:32.004Z,2.17
2023-12-13T14:42:01.726Z,2.30
2023-12-13T14:44:30.625Z,2.37
2023-12-13T14:46:58.733Z,2.60
2023-12-13T14:49:26.966Z,2.40
2023-12-13T14:51:55.935Z,2.28
2023-12-13T14:54:24.703Z,2.30
2023-12-13T14:56:53.007Z,2.60
2023-12-13T14:59:22.494Z,2.75
2023-12-13T15:01:50.586Z,2.60
2023-12-13T15:04:18.867Z,2.80
2023-12-13T15:06:47.218Z,2.38
2023-12-13T15:09:15.289Z,3.05
2023-12-13T15:11:43.523Z,2.85
2023-12-13T15:14:11.707Z,3.10
2023-12-13T15:16:41.863Z,3.17
2023-12-13T15:19:10.103Z,3.13
2023-12-13T15:21:38.180Z,3.28
2023-12-13T15:24:07.866Z,3.45
2023-12-13T15:26:36.194Z,3.10
2023-12-13T15:29:05.302Z,2.93
2023-12-13T15:31:34.761Z,3.20
2023-12-13T15:34:04.475Z,3.50
2023-12-13T15:36:33.268Z,2.97
2023-12-13T15:39:05.363Z,3.15
2023-12-13T15:41:33.566Z,3.20
2023-12-13T15:44:07.260Z,3.50
2023-12-13T15:46:35.685Z,3.80
2023-12-13T15:49:05.175Z,3.58
2023-12-13T15:51:33.628Z,3.80
2023-12-13T15:54:01.701Z,3.90
2023-12-13T15:56:31.321Z,3.80
2023-12-13T15:58:59.575Z,4.40
2023-12-13T16:01:27.685Z,4.88
2023-12-13T16:03:56.384Z,5.30
2023-12-13T16:06:25.917Z,5.30
2023-12-13T16:08:53.907Z,6.07
2023-12-13T16:11:21.971Z,6.00
2023-12-13T16:13:50.072Z,6.03
2023-12-13T16:16:18.191Z,6.10
2023-12-13T16:18:49.936Z,6.20
2023-12-13T16:21:19.813Z,5.90
2023-12-13T16:23:49.448Z,5.40
2023-12-13T16:26:17.517Z,6.30
2023-12-13T16:28:45.714Z,6.32
2023-12-13T16:31:14.099Z,6.40
2023-12-13T16:33:42.402Z,5.70
2023-12-13T16:36:10.563Z,6.05
2023-12-13T16:38:38.698Z,5.73
2023-12-13T16:41:08.915Z,6.65
2023-12-13T16:43:37.115Z,7.25
2023-12-13T16:46:05.886Z,6.20
2023-12-13T16:48:34.240Z,6.40
2023-12-13T16:51:03.032Z,6.03
2023-12-13T16:53:31.562Z,6.70
2023-12-13T16:55:59.977Z,7.50
2023-12-13T16:58:29.695Z,6.05
2023-12-13T17:00:57.791Z,5.25
2023-12-13T17:03:25.903Z,4.50
2023-12-13T17:05:55.273Z,4.50
2023-12-13T17:08:23.533Z,4.25
2023-12-13T17:10:52.100Z,4.00
2023-12-13T17:13:20.258Z,4.57
2023-12-13T17:15:49.714Z,4.35
2023-12-13T17:18:18.069Z,4.90
2023-12-13T17:20:46.183Z,4.97
2023-12-13T17:23:14.936Z,5.22
2023-12-13T17:25:43.085Z,5.20
2023-12-13T17:28:11.233Z,5.90
2023-12-13T17:30:39.910Z,5.03
2023-12-13T17:33:09.694Z,6.70
2023-12-13T17:35:37.906Z,5.88
2023-12-13T17:38:06.522Z,6.05
2023-12-13T17:40:34.727Z,7.60
2023-12-13T17:43:03.180Z,7.15
2023-12-13T17:45:31.388Z,7.20
2023-12-13T17:47:59.459Z,8.10
2023-12-13T17:50:30.364Z,8.10
2023-12-13T17:52:58.941Z,8.60
2023-12-13T17:55:27.144Z,8.68
2023-12-13T17:57:55.750Z,9.98
2023-12-13T18:00:26.015Z,9.45
2023-12-13T18:02:54.097Z,10.70
2023-12-13T18:05:22.438Z,10.15
2023-12-13T18:07:52.099Z,10.20
2023-12-13T18:10:22.177Z,10.27
2023-12-13T18:12:50.472Z,10.32
2023-12-13T18:15:18.812Z,9.90
2023-12-13T18:17:46.984Z,11.50
2023-12-13T18:20:15.867Z,12.88
2023-12-13T18:22:43.996Z,15.20
2023-12-13T18:25:13.496Z,14.70
2023-12-13T18:27:41.655Z,17.70
2023-12-13T18:30:10.744Z,17.65
2023-12-13T18:32:39.167Z,18.93
2023-12-13T18:35:07.863Z,18.05
2023-12-13T18:37:36.047Z,20.40
2023-12-13T18:40:04.340Z,20.25
2023-12-13T18:42:34.802Z,18.33
2023-12-13T18:45:03.157Z,17.27
2023-12-13T18:47:31.448Z,16.98
2023-12-13T18:50:01.161Z,18.88
2023-12-13T18:52:29.354Z,19.63
2023-12-13T18:54:57.712Z,17.80
2023-12-13T18:57:26.237Z,17.77
2023-12-13T18:59:55.908Z,17.33
2023-12-13T19:02:23.984Z,16.80
2023-12-13T19:04:52.143Z,17.52
2023-12-13T19:07:20.546Z,17.40
2023-12-13T19:09:48.607Z,18.40
2023-12-13T19:12:16.752Z,18.83
2023-12-13T19:14:44.840Z,19.05
2023-12-13T19:17:14.641Z,19.47
2023-12-13T19:19:42.844Z,18.98
2023-12-13T19:22:11.515Z,18.60
2023-12-13T19:24:39.865Z,18.90
2023-12-13T19:27:07.951Z,24.20
2023-12-13T19:29:35.973Z,23.50
2023-12-13T19:32:04.256Z,19.05
2023-12-13T19:34:37.421Z,19.00
2023-12-13T19:37:08.402Z,19.60
2023-12-13T19:39:36.596Z,19.95
2023-12-13T19:42:04.922Z,19.13
2023-12-13T19:44:32.979Z,19.43
2023-12-13T19:47:01.353Z,19.90
2023-12-13T19:49:29.494Z,21.10
2023-12-13T19:51:59.062Z,20.40
2023-12-13T19:54:27.088Z,20.23
2023-12-13T19:56:55.215Z,18.88
2023-12-13T19:59:23.347Z,19.50
2023-12-13T20:01:52.628Z,19.88
2023-12-13T20:04:20.836Z,19.42
2023-12-13T20:06:48.876Z,20.55
2023-12-13T20:09:19.096Z,19.40
2023-12-13T20:11:47.978Z,19.63
2023-12-13T20:14:16.108Z,20.75
2023-12-13T20:16:44.280Z,20.73
2023-12-13T20:19:12.588Z,22.38
2023-12-13T20:21:40.620Z,21.70
2023-12-13T20:24:08.786Z,21.27
2023-12-13T20:26:38.224Z,20.30
2023-12-13T20:29:06.340Z,19.05
2023-12-13T20:31:34.479Z,19.10
2023-12-13T20:34:02.748Z,19.40
2023-12-13T20:36:30.877Z,17.63
2023-12-13T20:38:59.064Z,18.73
2023-12-13T20:41:27.179Z,17.83
2023-12-13T20:43:56.641Z,18.85
2023-12-13T20:46:24.788Z,18.10
2023-12-13T20:48:53.117Z,20.13
2023-12-13T20:51:21.420Z,18.83
2023-12-13T20:53:49.989Z,19.15
2023-12-13T20:56:19.210Z,19.65
2023-12-13T20:58:47.558Z,20.10
2023-12-13T21:01:17.044Z,21.15
2023-12-13T21:03:45.226Z,21.30
2023-12-13T21:06:14.838Z,19.80
2023-12-13T21:08:43.372Z,20.10
2023-12-13T21:11:11.556Z,19.92
2023-12-13T21:13:39.661Z,19.90
2023-12-13T21:16:09.156Z,19.10
2023-12-13T21:18:38.739Z,19.95
2023-12-13T21:21:07.243Z,19.23
2023-12-13T21:23:35.390Z,18.05
2023-12-13T21:26:03.562Z,18.17
2023-12-13T21:28:34.150Z,17.73
2023-12-13T21:31:02.764Z,17.55
2023-12-13T21:33:31.140Z,17.60
2023-12-13T21:36:00.741Z,17.38
2023-12-13T21:38:28.845Z,18.70
2023-12-13T21:40:58.863Z,17.80
2023-12-13T21:43:27.032Z,18.73
2023-12-13T21:45:55.111Z,19.48
2023-12-13T21:48:23.256Z,19.33
2023-12-13T21:50:51.493Z,18.35
2023-12-13T21:53:21.034Z,19.38
2023-12-13T21:55:49.237Z,20.60
2023-12-13T21:58:18.337Z,21.75
2023-12-13T22:00:46.625Z,22.42
2023-12-13T22:03:14.778Z,22.10
2023-12-13T22:05:42.969Z,22.00
2023-12-13T22:08:11.209Z,21.70
2023-12-13T22:10:43.212Z,21.52
2023-12-13T22:13:11.515Z,18.87
2023-12-13T22:15:39.558Z,17.70
2023-12-13T22:18:07.729Z,14.02
2023-12-13T22:20:35.915Z,9.65
2023-12-13T22:23:04.457Z,8.20
2023-12-13T22:25:32.599Z,6.43
2023-12-13T22:28:02.136Z,5.60
2023-12-13T22:30:30.276Z,5.13
2023-12-13T22:32:58.407Z,5.47
2023-12-13T22:35:26.663Z,5.05
2023-12-13T22:37:54.831Z,5.25
2023-12-13T22:40:22.919Z,5.50
2023-12-13T22:42:51.007Z,6.32
2023-12-13T22:45:21.615Z,5.97
2023-12-13T22:47:49.761Z,5.78
2023-12-13T22:50:17.993Z,6.00
2023-12-13T22:52:46.142Z,6.35
2023-12-13T22:55:14.659Z,6.05
2023-12-13T22:57:42.729Z,6.40
2023-12-13T23:00:23.241Z,6.10
2023-12-13T23:02:52.856Z,5.60
2023-12-13T23:05:21.294Z,5.90
2023-12-13T23:07:49.549Z,5.85
2023-12-13T23:10:19.104Z,5.03
2023-12-13T23:12:47.191Z,5.05
2023-12-13T23:15:15.266Z,4.25
2023-12-13T23:17:43.854Z,4.40
2023-12-13T23:20:13.748Z,4.00
2023-12-13T23:22:41.916Z,3.70
2023-12-13T23:25:10.450Z,4.03
2023-12-13T23:27:38.773Z,4.05
2023-12-13T23:30:08.037Z,4.32
2023-12-13T23:32:36.408Z,5.25
2023-12-13T23:35:05.129Z,5.13
2023-12-13T23:37:34.583Z,4.90
2023-12-13T23:40:04.456Z,5.63
2023-12-13T23:42:32.783Z,5.43
2023-12-13T23:45:00.946Z,5.50
2023-12-13T23:47:29.042Z,5.70
2023-12-13T23:49:57.341Z,5.90
2023-12-13T23:52:25.507Z,5.88
2023-12-13T23:54:54.963Z,5.93
2023-12-13T23:57:23.186Z,6.97
2023-12-13T23:59:51.405Z,7.00
